VLG7JU LEBL-LEIB
Flight info
| Callsign | VLG7JU |
|---|---|
| Flight time | 0h 35m |
| Altitude | 19000 |
| Route | LARPA N859 TOLSO |
| Aircraft | A320/M-SDE3FGHIRWY/LB1 |
Departure
| Time | 2026-05-07 18:46 |
|---|---|
| Airport | Josep Tarradellas Barcelona-El Prat Airport (LEBL) |
Arrival
| Time | 2026-05-07 19:22 |
|---|---|
| Airport | Ibiza Airport (LEIB) |
| Time | Latitude | Longitude | Altitude | Speed | Heading |
|---|---|---|---|---|---|
| 2026-05-07 18:22 | 41.29076 | 2.07742 | 19 ft | 0 kts | 155° |
| 2026-05-07 18:36 | 41.29085 | 2.07737 | 19 ft | 4 kts | 155° |
| 2026-05-07 18:37 | 41.29109 | 2.07723 | 22 ft | 2 kts | 155° |
| 2026-05-07 18:37 | 41.29114 | 2.07720 | 22 ft | 0 kts | 155° |
| 2026-05-07 18:38 | 41.29113 | 2.07720 | 22 ft | 0 kts | 155° |
| 2026-05-07 18:39 | 41.29112 | 2.07722 | 19 ft | 1 kts | 148° |
| 2026-05-07 18:39 | 41.29113 | 2.07727 | 19 ft | 0 kts | 107° |
| 2026-05-07 18:40 | 41.29115 | 2.07730 | 19 ft | 0 kts | 73° |
| 2026-05-07 18:40 | 41.29118 | 2.07731 | 19 ft | 0 kts | 40° |
| 2026-05-07 18:40 | 41.29121 | 2.07729 | 20 ft | 0 kts | 8° |
| 2026-05-07 18:40 | 41.29123 | 2.07726 | 20 ft | 1 kts | 336° |
| 2026-05-07 18:41 | 41.29139 | 2.07717 | 19 ft | 4 kts | 342° |
| 2026-05-07 18:41 | 41.29169 | 2.07740 | 21 ft | 7 kts | 58° |
| 2026-05-07 18:41 | 41.29195 | 2.07814 | 21 ft | 11 kts | 65° |
| 2026-05-07 18:41 | 41.29232 | 2.07922 | 19 ft | 15 kts | 66° |
| 2026-05-07 18:42 | 41.29269 | 2.08034 | 20 ft | 11 kts | 66° |
| 2026-05-07 18:42 | 41.29307 | 2.08145 | 21 ft | 14 kts | 65° |
| 2026-05-07 18:42 | 41.29353 | 2.08276 | 19 ft | 16 kts | 64° |
| 2026-05-07 18:42 | 41.29329 | 2.08401 | 20 ft | 17 kts | 150° |
| 2026-05-07 18:43 | 41.29212 | 2.08449 | 20 ft | 19 kts | 193° |
| 2026-05-07 18:43 | 41.29082 | 2.08395 | 20 ft | 21 kts | 199° |
| 2026-05-07 18:43 | 41.28934 | 2.08325 | 18 ft | 24 kts | 199° |
| 2026-05-07 18:43 | 41.28774 | 2.08254 | 17 ft | 26 kts | 198° |
| 2026-05-07 18:44 | 41.28662 | 2.08148 | 17 ft | 16 kts | 242° |
| 2026-05-07 18:44 | 41.28609 | 2.07996 | 18 ft | 20 kts | 245° |
| 2026-05-07 18:44 | 41.28548 | 2.07814 | 17 ft | 23 kts | 246° |
| 2026-05-07 18:44 | 41.28476 | 2.07614 | 18 ft | 21 kts | 233° |
| 2026-05-07 18:45 | 41.28355 | 2.07529 | 17 ft | 20 kts | 200° |
| 2026-05-07 18:45 | 41.28266 | 2.07494 | 21 ft | 8 kts | 182° |
| 2026-05-07 18:45 | 41.28261 | 2.07526 | 20 ft | 4 kts | 64° |
| 2026-05-07 18:45 | 41.28321 | 2.07694 | 19 ft | 54 kts | 65° |
| 2026-05-07 18:46 | 41.28587 | 2.08477 | 21 ft | 124 kts | 65° |
| 2026-05-07 18:46 | 41.28990 | 2.09679 | 330 ft | 151 kts | 68° |
| 2026-05-07 18:46 | 41.29290 | 2.11026 | 1091 ft | 156 kts | 90° |
| 2026-05-07 18:46 | 41.29185 | 2.12466 | 1875 ft | 159 kts | 96° |
| 2026-05-07 18:47 | 41.29046 | 2.13979 | 2525 ft | 169 kts | 97° |
| 2026-05-07 18:47 | 41.28899 | 2.15561 | 3193 ft | 175 kts | 97° |
| 2026-05-07 18:47 | 41.28745 | 2.17214 | 3850 ft | 186 kts | 98° |
| 2026-05-07 18:47 | 41.28556 | 2.18969 | 4527 ft | 199 kts | 106° |
| 2026-05-07 18:48 | 41.27821 | 2.20568 | 5199 ft | 213 kts | 140° |
| 2026-05-07 18:48 | 41.26422 | 2.21376 | 5872 ft | 232 kts | 168° |
| 2026-05-07 18:48 | 41.24764 | 2.21746 | 6534 ft | 251 kts | 169° |
| 2026-05-07 18:48 | 41.22967 | 2.22117 | 7198 ft | 270 kts | 169° |
| 2026-05-07 18:49 | 41.21082 | 2.22502 | 8093 ft | 277 kts | 170° |
| 2026-05-07 18:49 | 41.19159 | 2.22898 | 9069 ft | 283 kts | 170° |
| 2026-05-07 18:49 | 41.17197 | 2.23307 | 10031 ft | 288 kts | 170° |
| 2026-05-07 18:49 | 41.15145 | 2.23739 | 10523 ft | 310 kts | 170° |
| 2026-05-07 18:50 | 41.12940 | 2.24206 | 10987 ft | 329 kts | 170° |
| 2026-05-07 18:50 | 41.10654 | 2.24692 | 11750 ft | 336 kts | 171° |
| 2026-05-07 18:50 | 41.08325 | 2.25185 | 12547 ft | 342 kts | 171° |
| 2026-05-07 18:50 | 41.05958 | 2.25690 | 13354 ft | 348 kts | 171° |
| 2026-05-07 18:51 | 41.03555 | 2.26204 | 14151 ft | 352 kts | 171° |
| 2026-05-07 18:51 | 41.01127 | 2.26720 | 14914 ft | 355 kts | 172° |
| 2026-05-07 18:51 | 40.98681 | 2.27239 | 15688 ft | 357 kts | 172° |
| 2026-05-07 18:51 | 40.96226 | 2.27760 | 16478 ft | 359 kts | 172° |
| 2026-05-07 18:52 | 40.93754 | 2.28283 | 17277 ft | 361 kts | 172° |
| 2026-05-07 18:52 | 40.91265 | 2.28811 | 18048 ft | 364 kts | 172° |
| 2026-05-07 18:52 | 40.88758 | 2.29343 | 18664 ft | 365 kts | 172° |
| 2026-05-07 18:52 | 40.86248 | 2.29878 | 18891 ft | 366 kts | 172° |
| 2026-05-07 18:53 | 40.83727 | 2.30416 | 18965 ft | 368 kts | 172° |
| 2026-05-07 18:53 | 40.81193 | 2.30955 | 18970 ft | 370 kts | 172° |
| 2026-05-07 18:53 | 40.78650 | 2.31491 | 18968 ft | 370 kts | 172° |
| 2026-05-07 18:53 | 40.76109 | 2.32025 | 18965 ft | 370 kts | 172° |
| 2026-05-07 18:54 | 40.73567 | 2.32559 | 18965 ft | 370 kts | 172° |
| 2026-05-07 18:54 | 40.71027 | 2.33092 | 18964 ft | 370 kts | 172° |
| 2026-05-07 18:54 | 40.68485 | 2.33624 | 18966 ft | 370 kts | 172° |
| 2026-05-07 18:54 | 40.65944 | 2.34146 | 18962 ft | 369 kts | 174° |
| 2026-05-07 18:55 | 40.63383 | 2.34236 | 18967 ft | 368 kts | 185° |
| 2026-05-07 18:55 | 40.60867 | 2.33654 | 18966 ft | 367 kts | 197° |
| 2026-05-07 18:55 | 40.58487 | 2.32452 | 18969 ft | 367 kts | 204° |
| 2026-05-07 18:55 | 40.56160 | 2.31089 | 18965 ft | 367 kts | 204° |
| 2026-05-07 18:56 | 40.53826 | 2.29729 | 18971 ft | 367 kts | 204° |
| 2026-05-07 18:56 | 40.51489 | 2.28372 | 18977 ft | 367 kts | 205° |
| 2026-05-07 18:56 | 40.49941 | 2.27478 | 18974 ft | 367 kts | 205° |
| 2026-05-07 18:56 | 40.46843 | 2.25692 | 18975 ft | 367 kts | 205° |
| 2026-05-07 18:57 | 40.45260 | 2.24778 | 18974 ft | 367 kts | 205° |
| 2026-05-07 18:57 | 40.42171 | 2.22992 | 18973 ft | 367 kts | 205° |
| 2026-05-07 18:57 | 40.39839 | 2.21643 | 18974 ft | 367 kts | 205° |
| 2026-05-07 18:57 | 40.37503 | 2.20298 | 18974 ft | 367 kts | 205° |
| 2026-05-07 18:58 | 40.35167 | 2.18955 | 18972 ft | 366 kts | 205° |
| 2026-05-07 18:58 | 40.33589 | 2.18045 | 18971 ft | 366 kts | 205° |
| 2026-05-07 18:58 | 40.31256 | 2.16699 | 18972 ft | 366 kts | 205° |
| 2026-05-07 18:58 | 40.28923 | 2.15353 | 18972 ft | 366 kts | 205° |
| 2026-05-07 18:59 | 40.26590 | 2.14009 | 18972 ft | 366 kts | 205° |
| 2026-05-07 18:59 | 40.24293 | 2.12689 | 18971 ft | 366 kts | 205° |
| 2026-05-07 18:59 | 40.21965 | 2.11342 | 18979 ft | 365 kts | 205° |
| 2026-05-07 18:59 | 40.19659 | 2.10010 | 18962 ft | 361 kts | 205° |
| 2026-05-07 19:00 | 40.17363 | 2.08680 | 18953 ft | 361 kts | 205° |
| 2026-05-07 19:00 | 40.15063 | 2.07347 | 18954 ft | 362 kts | 205° |
| 2026-05-07 19:00 | 40.12764 | 2.06019 | 18952 ft | 361 kts | 205° |
| 2026-05-07 19:00 | 40.10474 | 2.04704 | 18958 ft | 360 kts | 205° |
| 2026-05-07 19:01 | 40.08182 | 2.03383 | 18954 ft | 360 kts | 205° |
| 2026-05-07 19:01 | 40.05886 | 2.02052 | 18950 ft | 361 kts | 205° |
| 2026-05-07 19:01 | 40.03587 | 2.00725 | 18948 ft | 361 kts | 205° |
| 2026-05-07 19:01 | 40.01289 | 1.99405 | 18949 ft | 360 kts | 205° |
| 2026-05-07 19:02 | 39.99006 | 1.98057 | 18952 ft | 360 kts | 205° |
| 2026-05-07 19:02 | 39.96733 | 1.96685 | 18939 ft | 361 kts | 205° |
| 2026-05-07 19:02 | 39.94453 | 1.95309 | 18947 ft | 361 kts | 205° |
| 2026-05-07 19:02 | 39.92168 | 1.93933 | 18947 ft | 361 kts | 205° |
| 2026-05-07 19:03 | 39.89891 | 1.92562 | 18954 ft | 361 kts | 205° |
| 2026-05-07 19:03 | 39.87609 | 1.91189 | 18954 ft | 362 kts | 205° |
| 2026-05-07 19:03 | 39.85315 | 1.89840 | 18963 ft | 362 kts | 205° |
| 2026-05-07 19:03 | 39.83005 | 1.88543 | 18966 ft | 361 kts | 205° |
| 2026-05-07 19:04 | 39.80701 | 1.87255 | 18964 ft | 361 kts | 205° |
| 2026-05-07 19:04 | 39.78395 | 1.85963 | 18960 ft | 361 kts | 204° |
| 2026-05-07 19:04 | 39.76111 | 1.84608 | 18960 ft | 361 kts | 205° |
| 2026-05-07 19:04 | 39.73835 | 1.83228 | 18956 ft | 361 kts | 205° |
| 2026-05-07 19:05 | 39.71557 | 1.81845 | 18953 ft | 361 kts | 205° |
| 2026-05-07 19:05 | 39.69276 | 1.80461 | 18955 ft | 362 kts | 205° |
| 2026-05-07 19:05 | 39.67000 | 1.79082 | 18954 ft | 362 kts | 205° |
| 2026-05-07 19:05 | 39.64717 | 1.77698 | 18951 ft | 362 kts | 205° |
| 2026-05-07 19:06 | 39.62435 | 1.76316 | 18952 ft | 362 kts | 205° |
| 2026-05-07 19:06 | 39.57870 | 1.73552 | 18954 ft | 362 kts | 205° |
| 2026-05-07 19:06 | 39.55589 | 1.72166 | 18948 ft | 362 kts | 205° |
| 2026-05-07 19:07 | 39.53323 | 1.70743 | 18955 ft | 362 kts | 205° |
| 2026-05-07 19:07 | 39.51062 | 1.69315 | 18960 ft | 361 kts | 205° |
| 2026-05-07 19:07 | 39.48807 | 1.67892 | 18962 ft | 361 kts | 205° |
| 2026-05-07 19:07 | 39.46544 | 1.66464 | 18961 ft | 361 kts | 205° |
| 2026-05-07 19:08 | 39.44292 | 1.65044 | 18961 ft | 361 kts | 205° |
| 2026-05-07 19:08 | 39.42036 | 1.63623 | 18961 ft | 361 kts | 205° |
| 2026-05-07 19:08 | 39.39810 | 1.62221 | 18961 ft | 361 kts | 205° |
| 2026-05-07 19:08 | 39.37554 | 1.60802 | 18958 ft | 361 kts | 205° |
| 2026-05-07 19:09 | 39.35297 | 1.59384 | 18957 ft | 361 kts | 205° |
| 2026-05-07 19:09 | 39.33061 | 1.57975 | 18938 ft | 351 kts | 205° |
| 2026-05-07 19:09 | 39.30909 | 1.56596 | 18681 ft | 341 kts | 205° |
| 2026-05-07 19:09 | 39.28881 | 1.55048 | 18273 ft | 338 kts | 213° |
| 2026-05-07 19:10 | 39.26979 | 1.53289 | 17668 ft | 334 kts | 214° |
| 2026-05-07 19:10 | 39.25102 | 1.51548 | 16995 ft | 330 kts | 216° |
| 2026-05-07 19:10 | 39.23263 | 1.49839 | 16630 ft | 318 kts | 216° |
| 2026-05-07 19:10 | 39.21494 | 1.48197 | 16144 ft | 312 kts | 216° |
| 2026-05-07 19:11 | 39.19739 | 1.46570 | 15579 ft | 309 kts | 215° |
| 2026-05-07 19:11 | 39.18000 | 1.44961 | 15044 ft | 306 kts | 215° |
| 2026-05-07 19:11 | 39.16275 | 1.43369 | 14510 ft | 304 kts | 215° |
| 2026-05-07 19:11 | 39.14559 | 1.41787 | 13987 ft | 302 kts | 215° |
| 2026-05-07 19:12 | 39.12855 | 1.40215 | 13431 ft | 300 kts | 215° |
| 2026-05-07 19:12 | 39.11157 | 1.38648 | 12798 ft | 300 kts | 216° |
| 2026-05-07 19:12 | 39.09459 | 1.37080 | 12182 ft | 300 kts | 216° |
| 2026-05-07 19:12 | 39.07762 | 1.35514 | 11574 ft | 300 kts | 215° |
| 2026-05-07 19:13 | 39.06067 | 1.33950 | 10991 ft | 299 kts | 215° |
| 2026-05-07 19:13 | 39.04396 | 1.32410 | 10473 ft | 291 kts | 215° |
| 2026-05-07 19:13 | 39.02768 | 1.30911 | 9964 ft | 285 kts | 215° |
| 2026-05-07 19:13 | 39.01169 | 1.29440 | 9429 ft | 280 kts | 215° |
| 2026-05-07 19:14 | 38.99594 | 1.27992 | 8874 ft | 276 kts | 215° |
| 2026-05-07 19:14 | 38.98042 | 1.26562 | 8343 ft | 274 kts | 215° |
| 2026-05-07 19:14 | 38.96499 | 1.25141 | 7807 ft | 272 kts | 216° |
| 2026-05-07 19:14 | 38.94965 | 1.23729 | 7285 ft | 270 kts | 215° |
| 2026-05-07 19:15 | 38.93435 | 1.22328 | 6758 ft | 270 kts | 215° |
| 2026-05-07 19:15 | 38.91851 | 1.20896 | 6252 ft | 285 kts | 215° |
| 2026-05-07 19:15 | 38.90233 | 1.19439 | 5710 ft | 282 kts | 215° |
| 2026-05-07 19:15 | 38.88653 | 1.18018 | 5137 ft | 281 kts | 215° |
| 2026-05-07 19:16 | 38.87051 | 1.16599 | 4539 ft | 279 kts | 215° |
| 2026-05-07 19:16 | 38.85452 | 1.15208 | 3967 ft | 275 kts | 215° |
| 2026-05-07 19:16 | 38.83892 | 1.13851 | 3507 ft | 268 kts | 214° |
| 2026-05-07 19:16 | 38.82221 | 1.12934 | 3088 ft | 260 kts | 185° |
| 2026-05-07 19:17 | 38.80494 | 1.13180 | 2993 ft | 242 kts | 155° |
| 2026-05-07 19:17 | 38.79211 | 1.14352 | 2999 ft | 216 kts | 119° |
| 2026-05-07 19:17 | 38.78773 | 1.16058 | 3004 ft | 198 kts | 84° |
| 2026-05-07 19:17 | 38.79147 | 1.17692 | 3004 ft | 191 kts | 52° |
| 2026-05-07 19:18 | 38.79892 | 1.19107 | 2867 ft | 193 kts | 61° |
| 2026-05-07 19:18 | 38.80433 | 1.20673 | 2650 ft | 190 kts | 61° |
| 2026-05-07 19:18 | 38.81011 | 1.22166 | 2429 ft | 183 kts | 59° |
| 2026-05-07 19:18 | 38.81583 | 1.23568 | 2174 ft | 172 kts | 57° |
| 2026-05-07 19:19 | 38.82128 | 1.24887 | 1945 ft | 161 kts | 57° |
| 2026-05-07 19:19 | 38.82625 | 1.26086 | 1749 ft | 144 kts | 58° |
| 2026-05-07 19:19 | 38.83071 | 1.27162 | 1555 ft | 132 kts | 57° |
| 2026-05-07 19:19 | 38.83495 | 1.28180 | 1388 ft | 128 kts | 58° |
| 2026-05-07 19:20 | 38.83915 | 1.29188 | 1213 ft | 129 kts | 57° |
| 2026-05-07 19:20 | 38.84331 | 1.30189 | 1045 ft | 126 kts | 57° |
| 2026-05-07 19:20 | 38.84745 | 1.31185 | 874 ft | 127 kts | 56° |
| 2026-05-07 19:20 | 38.85163 | 1.32182 | 705 ft | 128 kts | 57° |
| 2026-05-07 19:21 | 38.85579 | 1.33190 | 545 ft | 126 kts | 55° |
| 2026-05-07 19:21 | 38.85991 | 1.34182 | 353 ft | 126 kts | 57° |
| 2026-05-07 19:21 | 38.86404 | 1.35179 | 163 ft | 126 kts | 58° |
| 2026-05-07 19:21 | 38.86811 | 1.36170 | 26 ft | 126 kts | 58° |
| 2026-05-07 19:22 | 38.87165 | 1.37023 | 10 ft | 84 kts | 62° |
| 2026-05-07 19:22 | 38.87359 | 1.37492 | 10 ft | 35 kts | 62° |
| 2026-05-07 19:22 | 38.87479 | 1.37755 | 10 ft | 29 kts | 50° |
| 2026-05-07 19:22 | 38.87594 | 1.37866 | 11 ft | 13 kts | 32° |
| 2026-05-07 19:23 | 38.87668 | 1.37925 | 10 ft | 9 kts | 29° |
| 2026-05-07 19:23 | 38.87708 | 1.37884 | 9 ft | 11 kts | 254° |
| 2026-05-07 19:23 | 38.87688 | 1.37833 | 10 ft | 6 kts | 242° |
| 2026-05-07 19:23 | 38.87676 | 1.37805 | 9 ft | 0 kts | 241° |
| 2026-05-07 19:24 | 38.87667 | 1.37784 | 9 ft | 5 kts | 241° |
| 2026-05-07 19:24 | 38.87644 | 1.37731 | 9 ft | 9 kts | 240° |
| 2026-05-07 19:24 | 38.87608 | 1.37651 | 9 ft | 12 kts | 240° |
| 2026-05-07 19:25 | 38.87580 | 1.37578 | 10 ft | 7 kts | 262° |
| 2026-05-07 19:25 | 38.87621 | 1.37531 | 9 ft | 10 kts | 332° |
| 2026-05-07 19:25 | 38.87690 | 1.37477 | 9 ft | 12 kts | 312° |
| 2026-05-07 19:25 | 38.87676 | 1.37379 | 9 ft | 12 kts | 241° |
| 2026-05-07 19:26 | 38.87634 | 1.37277 | 9 ft | 15 kts | 242° |
| 2026-05-07 19:26 | 38.87588 | 1.37166 | 9 ft | 13 kts | 242° |
| 2026-05-07 19:26 | 38.87547 | 1.37066 | 9 ft | 11 kts | 243° |
| 2026-05-07 19:26 | 38.87547 | 1.37022 | 9 ft | 5 kts | 316° |
| 2026-05-07 19:27 | 38.87580 | 1.37000 | 9 ft | 5 kts | 332° |
| 2026-05-07 19:27 | 38.87587 | 1.36995 | 9 ft | 0 kts | 332° |